Time;durP1;ratioP1;P1;durP2;ratioP2;P2;SDS_P1;SDS_P2;PMS_P1;PMS_P2;Temp;Humidity;BMP_temperature;BMP_pressure;BME280_temperature;BME280_humidity;BME280_pressure;Samples;Min_cycle;Max_cycle;Signal;HPM_P1;HPM_P2
2023/11/18 00:00:19;;;;;;;15.73;9.27;;;;;;;1.85;84.31;100466.72;5115072;27;20666;-68
2023/11/18 00:02:49;;;;;;;11.13;8.70;;;;;;;1.90;84.86;100472.81;5104471;27;20212;-64
2023/11/18 00:05:17;;;;;;;14.83;9.30;;;;;;;1.84;84.21;100467.56;5112060;27;20252;-63
2023/11/18 00:07:45;;;;;;;13.03;8.50;;;;;;;1.89;84.06;100481.25;5102320;27;20261;-64
2023/11/18 00:10:13;;;;;;;10.33;8.00;;;;;;;1.79;84.82;100466.53;5106071;27;20216;-67
2023/11/18 00:12:41;;;;;;;11.30;8.33;;;;;;;1.87;84.75;100484.53;5108424;28;20203;-65
2023/11/18 00:15:11;;;;;;;11.70;8.13;;;;;;;1.89;84.88;100486.34;5109533;28;20326;-64
2023/11/18 00:17:40;;;;;;;12.10;8.40;;;;;;;1.96;85.66;100491.59;5116584;27;20694;-64
2023/11/18 00:20:12;;;;;;;13.57;8.67;;;;;;;1.96;85.29;100494.16;5109545;27;20207;-63
2023/11/18 00:22:42;;;;;;;11.63;7.30;;;;;;;1.96;84.94;100499.22;5112147;27;20671;-63
2023/11/18 00:25:10;;;;;;;9.93;7.60;;;;;;;1.94;84.88;100496.63;5110432;28;20207;-66
2023/11/18 00:27:39;;;;;;;12.20;8.33;;;;;;;1.93;84.58;100505.94;5100772;28;20209;-64
2023/11/18 00:30:10;;;;;;;10.77;7.77;;;;;;;1.94;84.81;100507.66;5113570;28;20200;-64
2023/11/18 00:32:39;;;;;;;11.33;7.83;;;;;;;1.97;84.47;100508.56;5104037;28;20717;-64
2023/11/18 00:35:11;;;;;;;12.23;9.23;;;;;;;1.97;85.25;100511.97;5104154;28;20308;-65
2023/11/18 00:37:39;;;;;;;11.70;8.33;;;;;;;1.98;84.22;100510.28;5108403;28;20249;-65
2023/11/18 00:40:09;;;;;;;10.30;7.40;;;;;;;2.02;83.90;100509.56;5106961;28;20199;-63
2023/11/18 00:42:38;;;;;;;9.57;7.20;;;;;;;2.02;84.62;100512.09;5108079;28;20212;-65
2023/11/18 00:45:07;;;;;;;11.03;7.63;;;;;;;2.03;83.90;100509.63;5105038;28;20272;-64
2023/11/18 00:47:35;;;;;;;12.23;8.10;;;;;;;2.01;84.19;100515.47;5110125;28;20249;-63
2023/11/18 00:50:07;;;;;;;9.27;7.23;;;;;;;2.00;83.35;100514.63;5111830;28;20658;-70
2023/11/18 00:52:41;;;;;;;9.50;7.00;;;;;;;2.00;83.45;100517.16;5109547;28;20235;-69
2023/11/18 00:55:10;;;;;;;8.97;7.20;;;;;;;2.00;83.66;100522.25;5102591;27;20211;-69
2023/11/18 00:57:40;;;;;;;9.13;6.80;;;;;;;1.97;83.86;100526.38;5112660;27;20208;-70
2023/11/18 01:00:15;;;;;;;9.57;7.03;;;;;;;1.96;83.95;100525.50;5110734;28;20195;-69
2023/11/18 01:02:44;;;;;;;8.23;6.80;;;;;;;1.94;83.69;100529.66;5110592;28;20242;-69
2023/11/18 01:05:13;;;;;;;8.83;6.53;;;;;;;1.97;83.99;100526.38;5107002;28;20670;-69
2023/11/18 01:07:44;;;;;;;7.60;6.00;;;;;;;1.94;84.75;100527.97;5102267;28;20670;-69
2023/11/18 01:10:13;;;;;;;8.80;6.17;;;;;;;1.98;83.84;100528.06;5105802;28;20201;-69
2023/11/18 01:12:44;;;;;;;8.27;6.07;;;;;;;2.00;83.72;100531.53;5096341;28;20197;-70
2023/11/18 01:15:14;;;;;;;9.03;6.37;;;;;;;1.97;83.47;100531.44;5100838;28;20227;-71
2023/11/18 01:17:42;;;;;;;8.83;6.57;;;;;;;1.96;84.14;100542.44;5102332;28;20566;-71
2023/11/18 01:20:13;;;;;;;8.93;6.10;;;;;;;1.93;84.18;100535.56;5107847;28;20599;-72
2023/11/18 01:22:45;;;;;;;8.10;5.60;;;;;;;1.96;84.30;100532.28;5106580;28;20215;-73
2023/11/18 01:25:13;;;;;;;8.73;5.93;;;;;;;1.94;84.42;100522.91;5106498;28;20224;-70
2023/11/18 01:27:40;;;;;;;8.30;6.10;;;;;;;1.93;84.38;100525.41;5103875;28;20643;-69
2023/11/18 01:30:10;;;;;;;7.90;6.00;;;;;;;1.93;83.88;100528.81;5114259;28;20204;-69
2023/11/18 01:32:39;;;;;;;7.23;5.60;;;;;;;1.88;84.27;100529.50;5105115;28;20196;-71
2023/11/18 01:35:12;;;;;;;7.30;5.60;;;;;;;1.87;84.74;100525.19;5098612;28;20200;-70
2023/11/18 01:37:40;;;;;;;6.97;6.17;;;;;;;1.89;84.19;100518.50;5108626;28;20202;-71
2023/11/18 01:40:13;;;;;;;7.07;5.57;;;;;;;1.91;85.17;100517.75;5106930;27;20215;-70
2023/11/18 01:42:43;;;;;;;8.47;6.17;;;;;;;1.96;84.93;100517.88;5120453;27;20205;-70
2023/11/18 01:45:12;;;;;;;7.00;5.87;;;;;;;1.98;84.25;100517.91;5114785;28;20673;-70
2023/11/18 01:47:40;;;;;;;6.27;5.53;;;;;;;1.98;84.25;100523.00;5109461;27;20212;-70
2023/11/18 01:50:11;;;;;;;7.33;5.77;;;;;;;2.03;84.63;100521.47;5100481;27;20204;-70
2023/11/18 01:52:41;;;;;;;7.13;6.10;;;;;;;2.01;83.71;100518.00;5113515;27;20204;-70
2023/11/18 01:55:16;;;;;;;6.93;5.30;;;;;;;2.00;83.59;100513.75;5108189;28;20736;-70
2023/11/18 01:57:45;;;;;;;8.57;6.87;;;;;;;1.99;83.83;100514.53;5107071;28;20672;-70
2023/11/18 02:00:17;;;;;;;8.13;5.63;;;;;;;1.96;83.80;100519.56;5109556;27;20264;-69
2023/11/18 02:02:46;;;;;;;9.10;6.23;;;;;;;1.98;84.76;100523.00;5127462;27;20551;-64
2023/11/18 02:05:15;;;;;;;7.40;5.70;;;;;;;1.94;83.18;100520.34;5111360;28;20211;-64
2023/11/18 02:07:43;;;;;;;9.73;5.83;;;;;;;1.89;84.39;100516.81;5108526;27;20234;-66
2023/11/18 02:10:11;;;;;;;7.33;5.23;;;;;;;1.81;84.42;100505.56;5120036;27;20256;-67
2023/11/18 02:12:48;;;;;;;6.53;5.30;;;;;;;1.86;84.81;100515.88;5114905;27;20212;-67
2023/11/18 02:15:18;;;;;;;7.00;5.80;;;;;;;1.87;84.22;100526.06;5100994;27;20231;-65
2023/11/18 02:17:46;;;;;;;6.87;5.40;;;;;;;1.85;84.00;100532.78;5113200;27;20227;-64
2023/11/18 02:20:16;;;;;;;8.10;5.23;;;;;;;1.84;84.71;100541.22;5112933;28;20226;-64
2023/11/18 02:22:46;;;;;;;5.40;4.47;;;;;;;1.82;83.93;100536.91;5120343;27;20196;-66
2023/11/18 02:25:17;;;;;;;5.90;4.70;;;;;;;1.80;84.52;100539.38;5112398;27;20555;-64
2023/11/18 02:27:47;;;;;;;7.20;4.70;;;;;;;1.81;83.87;100536.06;5110409;28;20226;-64
2023/11/18 02:30:16;;;;;;;5.73;4.80;;;;;;;1.81;84.79;100540.28;5111784;28;20816;-63
2023/11/18 02:32:53;;;;;;;6.00;4.77;;;;;;;1.81;84.63;100538.59;5116198;27;20318;-68
2023/11/18 02:35:26;;;;;;;7.37;5.13;;;;;;;1.83;84.31;100544.56;5097666;27;20277;-65
2023/11/18 02:37:56;;;;;;;6.40;4.70;;;;;;;1.78;84.37;100541.03;5105004;27;20200;-65
2023/11/18 02:40:30;;;;;;;6.17;5.00;;;;;;;1.78;84.20;100546.13;5110394;28;20594;-68
2023/11/18 02:43:01;;;;;;;6.20;4.87;;;;;;;1.78;83.94;100546.13;5111482;27;20677;-64
2023/11/18 02:45:29;;;;;;;5.50;4.40;;;;;;;1.79;84.66;100549.50;5104959;28;20265;-66
2023/11/18 02:48:00;;;;;;;6.03;5.20;;;;;;;1.81;84.00;100548.75;5097753;27;20647;-65
2023/11/18 02:50:29;;;;;;;5.17;4.57;;;;;;;1.81;84.64;100552.97;5110669;27;20306;-65
2023/11/18 02:52:57;;;;;;;5.60;4.37;;;;;;;1.79;84.21;100550.38;5109778;27;20194;-63
2023/11/18 02:55:25;;;;;;;5.27;4.53;;;;;;;1.82;84.57;100552.16;5116671;27;20192;-63
2023/11/18 02:57:53;;;;;;;4.93;4.23;;;;;;;1.83;83.98;100556.41;5111350;28;20204;-63
2023/11/18 03:00:23;;;;;;;5.53;4.07;;;;;;;1.81;83.29;100560.59;5095312;27;20216;-63
2023/11/18 03:02:52;;;;;;;4.50;3.90;;;;;;;1.78;83.61;100566.44;5102608;27;20208;-65
2023/11/18 03:05:21;;;;;;;4.27;3.70;;;;;;;1.75;83.93;100562.94;5112677;27;20196;-65
2023/11/18 03:07:52;;;;;;;4.07;3.57;;;;;;;1.76;83.96;100570.59;5112117;28;20197;-64
2023/11/18 03:10:21;;;;;;;4.87;3.73;;;;;;;1.75;84.07;100571.41;5109873;28;20204;-63
2023/11/18 03:12:52;;;;;;;4.73;3.53;;;;;;;1.77;84.21;100574.88;5107389;27;20709;-70
2023/11/18 03:15:21;;;;;;;4.37;3.83;;;;;;;1.76;83.94;100578.22;5119060;27;20235;-63
2023/11/18 03:17:51;;;;;;;4.13;3.73;;;;;;;1.78;84.18;100571.50;5104789;27;20248;-62
2023/11/18 03:20:22;;;;;;;4.60;3.70;;;;;;;1.80;83.76;100574.09;5110582;28;20247;-64
2023/11/18 03:22:51;;;;;;;3.90;3.50;;;;;;;1.77;83.53;100579.06;5111647;28;20215;-64
2023/11/18 03:25:21;;;;;;;4.50;3.23;;;;;;;1.75;84.12;100580.72;5117673;27;20196;-63
2023/11/18 03:27:50;;;;;;;4.10;3.63;;;;;;;1.73;83.98;100585.75;5096061;28;20287;-64
2023/11/18 03:30:18;;;;;;;4.87;3.57;;;;;;;1.74;83.88;100590.00;5108755;28;20274;-64
2023/11/18 03:32:46;;;;;;;3.50;3.03;;;;;;;1.72;84.31;100594.16;5111771;27;20207;-63
2023/11/18 03:35:15;;;;;;;3.40;3.00;;;;;;;1.73;84.45;100588.28;5112077;27;20200;-63
2023/11/18 03:37:43;;;;;;;3.73;3.30;;;;;;;1.72;84.10;100593.31;5106999;28;20207;-64
2023/11/18 03:40:14;;;;;;;4.00;3.47;;;;;;;1.73;84.54;100595.91;5109730;28;20686;-65
2023/11/18 03:42:42;;;;;;;5.23;3.57;;;;;;;1.69;84.27;100601.69;5096653;28;20357;-63
2023/11/18 03:45:11;;;;;;;3.37;3.07;;;;;;;1.69;84.01;100604.22;5107857;27;20199;-69
2023/11/18 03:47:39;;;;;;;3.90;3.20;;;;;;;1.72;83.96;100598.38;5108215;27;20200;-63
2023/11/18 03:50:09;;;;;;;3.40;3.07;;;;;;;1.71;84.25;100601.75;5100648;27;20538;-64
2023/11/18 03:52:38;;;;;;;4.07;3.60;;;;;;;1.70;84.99;100605.97;5092922;28;20208;-63
2023/11/18 03:55:07;;;;;;;4.00;3.23;;;;;;;1.66;84.39;100614.31;5112743;27;20203;-64
2023/11/18 03:57:35;;;;;;;5.47;3.63;;;;;;;1.66;85.03;100611.78;5097680;27;20204;-65
2023/11/18 04:00:04;;;;;;;3.43;3.13;;;;;;;1.66;84.94;100616.84;5096966;27;20285;-64
2023/11/18 04:02:34;;;;;;;4.10;3.47;;;;;;;1.66;84.92;100609.22;5112852;27;20191;-65
2023/11/18 04:05:03;;;;;;;3.90;3.07;;;;;;;1.63;84.46;100611.66;5104584;27;20366;-65
2023/11/18 04:07:31;;;;;;;3.27;2.93;;;;;;;1.67;84.32;100614.34;5115409;27;20235;-62
2023/11/18 04:10:01;;;;;;;3.60;3.27;;;;;;;1.68;84.67;100620.28;5110674;28;20645;-66
2023/11/18 04:12:30;;;;;;;3.60;3.10;;;;;;;1.70;84.60;100623.75;5098896;28;20236;-63
2023/11/18 04:14:58;;;;;;;4.40;3.33;;;;;;;1.70;84.23;100623.75;5106896;27;20312;-65
2023/11/18 04:17:27;;;;;;;3.70;3.20;;;;;;;1.74;83.67;100625.59;5111328;27;20200;-65
2023/11/18 04:19:57;;;;;;;3.70;3.23;;;;;;;1.69;83.88;100620.34;5097903;28;20216;-66
2023/11/18 04:22:25;;;;;;;4.73;3.70;;;;;;;1.70;83.44;100628.84;5110821;27;20287;-64
2023/11/18 04:24:53;;;;;;;3.80;3.50;;;;;;;1.67;84.05;100634.66;5117247;27;20662;-69
2023/11/18 04:27:22;;;;;;;5.60;3.80;;;;;;;1.68;84.47;100625.38;5104690;28;20222;-70
2023/11/18 04:29:50;;;;;;;4.37;3.97;;;;;;;1.66;83.67;100635.50;5106227;28;20208;-72
2023/11/18 04:32:19;;;;;;;3.63;3.17;;;;;;;1.63;83.82;100634.53;5112159;28;20647;-69
2023/11/18 04:34:49;;;;;;;3.80;3.40;;;;;;;1.64;84.57;100642.19;5114679;28;20293;-71
2023/11/18 04:37:17;;;;;;;3.43;3.00;;;;;;;1.64;84.09;100639.63;5110662;28;20204;-69
2023/11/18 04:39:46;;;;;;;4.03;3.63;;;;;;;1.67;85.04;100638.88;5108089;28;20204;-70
2023/11/18 04:42:15;;;;;;;3.93;3.53;;;;;;;1.67;83.83;100633.81;5112077;28;20666;-71
2023/11/18 04:44:44;;;;;;;4.20;3.43;;;;;;;1.73;83.95;100634.03;5098364;28;20254;-70
2023/11/18 04:47:12;;;;;;;3.50;3.10;;;;;;;1.77;84.03;100646.00;5108557;28;20297;-69
2023/11/18 04:49:41;;;;;;;4.73;3.80;;;;;;;1.72;83.68;100634.81;5118522;28;20562;-70
2023/11/18 04:52:09;;;;;;;4.43;3.53;;;;;;;1.77;83.39;100643.47;5113951;28;20211;-70
2023/11/18 04:54:37;;;;;;;4.00;3.60;;;;;;;1.77;83.58;100642.56;5114749;28;20215;-70
2023/11/18 04:57:08;;;;;;;3.70;3.10;;;;;;;1.74;83.88;100648.44;5109948;28;20204;-70
2023/11/18 04:59:36;;;;;;;3.70;3.30;;;;;;;1.72;83.86;100646.66;5110763;27;20203;-72
2023/11/18 05:02:06;;;;;;;3.57;3.27;;;;;;;1.72;83.93;100650.06;5104440;28;20682;-70
2023/11/18 05:04:34;;;;;;;4.63;3.40;;;;;;;1.75;82.35;100650.16;5097616;28;20212;-70
2023/11/18 05:07:02;;;;;;;3.57;3.27;;;;;;;1.73;82.82;100654.34;5103998;28;20979;-71
2023/11/18 05:09:32;;;;;;;3.20;2.90;;;;;;;1.71;83.07;100655.97;5114435;28;20646;-68
2023/11/18 05:11:59;;;;;;;3.90;3.50;;;;;;;1.69;83.37;100668.63;5114166;27;20201;-67
2023/11/18 05:14:28;;;;;;;3.77;3.33;;;;;;;1.68;83.03;100671.94;5115619;27;20327;-69
2023/11/18 05:16:56;;;;;;;3.93;3.43;;;;;;;1.62;82.48;100669.22;5116487;27;20295;-70
2023/11/18 05:19:26;;;;;;;3.90;3.43;;;;;;;1.54;83.43;100657.91;5106961;27;20199;-70
2023/11/18 05:21:54;;;;;;;3.73;3.33;;;;;;;1.55;84.03;100663.88;5120660;27;20220;-71
2023/11/18 05:24:22;;;;;;;3.37;3.00;;;;;;;1.55;83.79;100663.88;5111381;27;20204;-70
2023/11/18 05:26:50;;;;;;;3.63;3.30;;;;;;;1.53;85.10;100661.25;5115426;27;20204;-70
2023/11/18 05:29:18;;;;;;;3.30;3.00;;;;;;;1.53;84.10;100663.81;5112337;27;20206;-70
2023/11/18 05:31:46;;;;;;;4.23;3.17;;;;;;;1.55;83.92;100679.13;5114913;28;20199;-70
2023/11/18 05:34:15;;;;;;;3.50;3.20;;;;;;;1.52;84.01;100679.88;5110084;27;20222;-66
2023/11/18 05:36:44;;;;;;;3.70;3.27;;;;;;;1.53;84.75;100680.72;5114070;28;20301;-65
2023/11/18 05:39:14;;;;;;;4.20;3.33;;;;;;;1.52;84.82;100684.06;5105639;27;20195;-63
2023/11/18 05:41:49;;;;;;;3.53;2.90;;;;;;;1.51;83.89;100688.31;5113647;27;20216;-63
2023/11/18 05:44:19;;;;;;;3.40;3.03;;;;;;;1.52;83.65;100695.09;5119675;27;20196;-66
2023/11/18 05:46:47;;;;;;;3.10;2.80;;;;;;;1.45;83.59;100694.00;5113186;27;20223;-64
2023/11/18 05:49:15;;;;;;;3.47;3.03;;;;;;;1.44;83.68;100701.59;5127329;27;20204;-63
2023/11/18 05:51:45;;;;;;;3.07;2.77;;;;;;;1.45;84.55;100706.72;5112334;28;20273;-64
2023/11/18 05:54:13;;;;;;;3.37;3.00;;;;;;;1.45;84.39;100718.53;5125397;27;20225;-65
2023/11/18 05:56:41;;;;;;;3.27;2.80;;;;;;;1.45;85.15;100714.31;5111532;27;20615;-65
2023/11/18 05:59:10;;;;;;;3.23;2.93;;;;;;;1.43;84.78;100715.94;5110887;27;20621;-64
2023/11/18 06:01:38;;;;;;;3.50;3.20;;;;;;;1.50;84.35;100731.41;5112286;27;20247;-65
2023/11/18 06:04:08;;;;;;;4.57;3.70;;;;;;;1.44;84.63;100727.84;5103415;28;20208;-65
2023/11/18 06:06:37;;;;;;;3.53;3.23;;;;;;;1.42;84.57;100726.91;5106685;27;20212;-66
2023/11/18 06:09:09;;;;;;;4.93;3.20;;;;;;;1.41;84.78;100732.81;5111826;27;20253;-64
2023/11/18 06:11:37;;;;;;;4.27;3.23;;;;;;;1.43;84.83;100736.25;5116341;27;20728;-65
2023/11/18 06:14:08;;;;;;;3.73;3.30;;;;;;;1.43;84.64;100738.78;5117017;27;20227;-63
2023/11/18 06:16:37;;;;;;;4.23;3.70;;;;;;;1.44;85.31;100742.22;5112646;27;20667;-63
2023/11/18 06:19:09;;;;;;;5.57;3.87;;;;;;;1.45;85.75;100737.19;5108489;27;20661;-65
2023/11/18 06:21:38;;;;;;;4.93;4.33;;;;;;;1.52;85.17;100737.41;5114956;27;20303;-63
2023/11/18 06:24:11;;;;;;;6.37;3.80;;;;;;;1.53;84.99;100742.53;5112522;27;20204;-65
2023/11/18 06:26:38;;;;;;;3.77;3.37;;;;;;;1.52;84.29;100752.66;5112930;28;20207;-63
2023/11/18 06:29:07;;;;;;;4.70;3.53;;;;;;;1.52;84.58;100771.28;5118778;27;20206;-64
2023/11/18 06:31:35;;;;;;;5.20;3.63;;;;;;;1.55;84.17;100762.91;5104640;27;20605;-64
2023/11/18 06:34:03;;;;;;;4.80;3.80;;;;;;;1.59;84.10;100765.63;5105615;28;20217;-67
2023/11/18 06:36:31;;;;;;;5.43;3.70;;;;;;;1.64;84.49;100769.19;5111755;27;20238;-66
2023/11/18 06:38:59;;;;;;;4.93;3.37;;;;;;;1.72;84.36;100778.75;5108960;27;20749;-66
2023/11/18 06:41:33;;;;;;;4.00;3.53;;;;;;;1.76;83.44;100778.03;5112655;27;20262;-66
2023/11/18 06:44:08;;;;;;;4.03;3.23;;;;;;;1.72;83.48;100773.66;5109311;27;20196;-68
2023/11/18 06:46:39;;;;;;;4.13;3.30;;;;;;;1.74;83.62;100774.59;5109346;28;20825;-70
2023/11/18 06:49:10;;;;;;;5.77;3.70;;;;;;;1.76;83.52;100776.38;5115838;27;20291;-68
2023/11/18 06:51:39;;;;;;;4.40;3.70;;;;;;;1.75;83.32;100776.31;5115367;27;20332;-68
2023/11/18 06:54:09;;;;;;;4.23;3.50;;;;;;;1.74;82.80;100788.16;5113392;27;20199;-71
2023/11/18 06:56:43;;;;;;;3.80;3.40;;;;;;;1.71;83.64;100789.72;5117294;27;20204;-71
2023/11/18 06:59:13;;;;;;;3.47;3.17;;;;;;;1.72;82.79;100788.91;5122243;27;20619;-71
2023/11/18 07:01:44;;;;;;;3.83;3.40;;;;;;;1.75;83.41;100796.66;5109576;27;20220;-69
2023/11/18 07:04:15;;;;;;;5.53;3.40;;;;;;;1.76;83.47;100811.06;5114650;27;20213;-71
2023/11/18 07:06:43;;;;;;;4.17;3.50;;;;;;;1.80;82.98;100807.84;5116252;27;20585;-71
2023/11/18 07:09:16;;;;;;;3.63;3.20;;;;;;;1.81;83.61;100805.38;5114242;27;20211;-71
2023/11/18 07:11:48;;;;;;;4.50;3.53;;;;;;;1.85;83.33;100812.28;5114245;27;20294;-71
2023/11/18 07:14:16;;;;;;;5.33;3.83;;;;;;;1.85;82.41;100817.38;5112751;27;20236;-72
2023/11/18 07:16:45;;;;;;;3.67;3.37;;;;;;;1.85;82.54;100827.53;5109166;27;20277;-75
2023/11/18 07:19:19;;;;;;;3.43;2.60;;;;;;;1.86;82.89;100825.84;5102590;27;20193;-73
2023/11/18 07:21:50;;;;;;;3.77;3.40;;;;;;;1.83;82.43;100824.06;5116427;27;20721;-73
2023/11/18 07:24:17;;;;;;;5.00;3.80;;;;;;;1.85;81.98;100832.59;5108229;27;20199;-73
2023/11/18 07:26:50;;;;;;;5.00;3.40;;;;;;;1.83;82.22;100826.59;5112075;27;20199;-72
2023/11/18 07:29:19;;;;;;;4.10;3.60;;;;;;;1.83;81.84;100831.69;5108275;27;20850;-74
2023/11/18 07:31:49;;;;;;;4.07;3.37;;;;;;;1.80;81.67;100830.69;5102491;27;20218;-72
2023/11/18 07:34:17;;;;;;;5.20;3.73;;;;;;;1.80;82.50;100834.09;5111426;27;20275;-71
2023/11/18 07:36:47;;;;;;;4.30;3.50;;;;;;;1.79;82.48;100836.59;5103781;27;20254;-72
2023/11/18 07:39:19;;;;;;;4.13;3.60;;;;;;;1.81;81.41;100853.63;5124555;27;20649;-72
2023/11/18 07:41:48;;;;;;;5.47;3.93;;;;;;;1.80;82.33;100834.09;5099320;28;20723;-71
2023/11/18 07:44:17;;;;;;;4.67;3.90;;;;;;;1.79;81.64;100844.22;5113648;27;20220;-69
2023/11/18 07:46:45;;;;;;;4.17;3.77;;;;;;;1.78;81.82;100845.91;5108666;28;20237;-72
2023/11/18 07:49:13;;;;;;;4.13;3.53;;;;;;;1.78;82.28;100845.91;5104565;27;20589;-71
2023/11/18 07:51:43;;;;;;;4.97;3.83;;;;;;;1.78;81.95;100845.03;5118701;27;20690;-70
2023/11/18 07:54:11;;;;;;;4.07;3.67;;;;;;;1.74;82.46;100849.13;5113030;27;20536;-69
2023/11/18 07:56:41;;;;;;;5.43;4.00;;;;;;;1.68;82.33;100849.75;5107071;28;20563;-70
2023/11/18 07:59:09;;;;;;;5.47;4.00;;;;;;;1.76;83.04;100857.66;5092357;28;20212;-68
2023/11/18 08:01:44;;;;;;;4.47;3.90;;;;;;;1.78;82.08;100863.69;5109602;27;20211;-68
2023/11/18 08:04:13;;;;;;;6.33;4.43;;;;;;;1.80;81.87;100867.13;5113774;27;20203;-69
2023/11/18 08:06:43;;;;;;;4.77;4.00;;;;;;;1.82;82.29;100870.59;5103307;27;20242;-68
2023/11/18 08:09:14;;;;;;;5.20;3.83;;;;;;;1.86;82.29;100867.38;5106400;27;20325;-67
2023/11/18 08:11:42;;;;;;;4.50;4.00;;;;;;;1.91;82.23;100877.69;5116549;27;20222;-71
2023/11/18 08:14:10;;;;;;;6.13;4.30;;;;;;;1.93;81.63;100879.50;5112089;27;20304;-68
2023/11/18 08:16:39;;;;;;;5.33;4.30;;;;;;;1.92;81.04;100879.44;5112337;27;20228;-69
2023/11/18 08:19:08;;;;;;;5.70;4.07;;;;;;;1.92;81.11;100889.59;5116024;27;20263;-69
2023/11/18 08:21:38;;;;;;;4.43;3.63;;;;;;;1.89;81.35;100889.50;5115842;27;20242;-69
2023/11/18 08:24:08;;;;;;;4.77;3.83;;;;;;;1.85;81.97;100878.34;5109740;27;20208;-69
2023/11/18 08:26:36;;;;;;;4.97;4.40;;;;;;;1.94;81.50;100888.84;5115429;27;20280;-72
2023/11/18 08:29:04;;;;;;;5.40;4.10;;;;;;;1.99;81.51;100901.72;5106210;27;20247;-71
2023/11/18 08:31:32;;;;;;;5.67;4.17;;;;;;;1.94;80.79;100898.13;5122458;27;20200;-70
2023/11/18 08:34:02;;;;;;;5.50;4.10;;;;;;;1.98;80.52;100906.75;5113394;27;20610;-71
2023/11/18 08:36:32;;;;;;;4.80;4.30;;;;;;;1.97;81.23;100898.25;5107564;28;20664;-73
2023/11/18 08:39:00;;;;;;;4.90;3.80;;;;;;;1.97;80.38;100902.47;5111030;28;20283;-69
2023/11/18 08:41:28;;;;;;;6.00;4.30;;;;;;;1.99;80.52;100906.81;5111907;28;20204;-70
2023/11/18 08:43:57;;;;;;;5.20;4.47;;;;;;;1.96;81.08;100911.78;5105373;28;20212;-70
2023/11/18 08:46:41;;;;;;;7.73;4.70;;;;;;;2.01;80.70;100919.56;5102930;28;20290;-68
2023/11/18 08:49:11;;;;;;;5.30;4.67;;;;;;;2.03;80.26;100923.03;5115744;27;20204;-70
2023/11/18 08:51:41;;;;;;;6.27;5.00;;;;;;;2.05;81.05;100917.19;5116459;28;20199;-68
2023/11/18 08:54:22;;;;;;;8.87;6.17;;;;;;;2.01;80.94;100910.25;5120117;27;20227;-67
2023/11/18 08:56:51;;;;;;;8.03;5.77;;;;;;;2.03;81.25;100923.91;5115444;27;20584;-69
2023/11/18 08:59:24;;;;;;;6.73;5.93;;;;;;;2.05;80.76;100923.94;5113199;27;20200;-69
2023/11/18 09:01:55;;;;;;;6.67;5.63;;;;;;;2.03;80.20;100923.03;5112994;27;20231;-71
2023/11/18 09:04:25;;;;;;;6.63;5.57;;;;;;;2.01;80.98;100919.56;5104781;28;20253;-73
2023/11/18 09:07:00;;;;;;;6.13;5.53;;;;;;;2.05;81.29;100934.13;5102734;28;20215;-73
2023/11/18 09:09:28;;;;;;;5.67;4.87;;;;;;;2.08;81.23;100935.09;5140155;27;20204;-73
2023/11/18 09:11:57;;;;;;;6.30;4.73;;;;;;;2.09;80.00;100929.19;5115913;28;20215;-73
2023/11/18 09:14:26;;;;;;;7.37;5.37;;;;;;;2.12;80.60;100928.44;5124279;27;20275;-74
2023/11/18 09:16:56;;;;;;;4.80;4.30;;;;;;;2.13;80.25;100932.72;5115782;27;20232;-72
2023/11/18 09:19:26;;;;;;;5.23;4.67;;;;;;;2.12;79.65;100928.44;5113896;27;20204;-74
2023/11/18 09:21:54;;;;;;;6.37;4.77;;;;;;;2.14;80.26;100937.03;5121080;27;20212;-73
2023/11/18 09:24:24;;;;;;;5.10;4.60;;;;;;;2.19;79.73;100940.59;5122063;27;20226;-73
2023/11/18 09:26:54;;;;;;;6.43;4.73;;;;;;;2.21;79.79;100933.00;5110374;27;20211;-74
2023/11/18 09:29:24;;;;;;;6.73;4.63;;;;;;;2.18;79.47;100933.78;5105219;27;20903;-71
2023/11/18 09:31:54;;;;;;;5.33;4.13;;;;;;;2.19;80.77;100943.13;5115234;28;20291;-72
2023/11/18 09:34:27;;;;;;;6.10;4.60;;;;;;;2.19;79.75;100950.75;5117421;27;20230;-72
2023/11/18 09:36:56;;;;;;;4.70;4.20;;;;;;;2.22;80.02;100950.88;5121575;27;20648;-73
2023/11/18 09:39:37;;;;;;;5.90;4.07;;;;;;;2.18;79.96;100954.13;5117890;27;20257;-73
2023/11/18 09:42:08;;;;;;;5.23;4.60;;;;;;;2.22;79.19;100957.63;5113106;27;20200;-73
2023/11/18 09:44:38;;;;;;;5.97;4.63;;;;;;;2.25;79.10;100945.03;5110259;27;20670;-73
2023/11/18 09:47:09;;;;;;;7.00;4.40;;;;;;;2.31;78.79;100951.19;5109152;27;20196;-72
2023/11/18 09:49:45;;;;;;;5.77;4.27;;;;;;;2.31;79.24;100946.09;5123385;27;20256;-71
2023/11/18 09:52:18;;;;;;;4.87;4.30;;;;;;;2.28;79.15;100945.13;5120734;27;20618;-72
2023/11/18 09:54:55;;;;;;;5.87;4.67;;;;;;;2.28;79.15;100956.16;5110739;28;20377;-72
2023/11/18 09:57:32;;;;;;;4.60;4.07;;;;;;;2.29;79.47;100951.97;5114110;27;20200;-70
2023/11/18 10:00:19;;;;;;;6.27;4.63;;;;;;;2.29;79.55;100946.88;5108873;27;20665;-70
2023/11/18 10:02:50;;;;;;;6.97;4.83;;;;;;;2.36;78.94;100952.25;5117072;27;20315;-69
2023/11/18 10:05:21;;;;;;;5.70;4.83;;;;;;;2.32;78.55;100952.94;5123089;27;20233;-72
2023/11/18 10:07:52;;;;;;;5.07;4.57;;;;;;;2.33;78.99;100954.66;5108540;27;20554;-72
2023/11/18 10:10:21;;;;;;;5.90;4.43;;;;;;;2.25;78.03;100943.34;5115639;27;20245;-72
2023/11/18 10:12:53;;;;;;;7.37;5.20;;;;;;;2.25;78.02;100945.91;5118307;27;20200;-72
2023/11/18 10:15:23;;;;;;;6.07;4.67;;;;;;;2.25;78.18;100950.13;5123697;27;20231;-78
2023/11/18 10:17:59;;;;;;;7.40;5.73;;;;;;;2.24;78.56;100954.31;5121216;27;20238;-74
2023/11/18 10:20:46;;;;;;;5.83;4.60;;;;;;;2.26;78.87;100957.78;5107288;27;20207;-72
2023/11/18 10:23:20;;;;;;;6.23;4.80;;;;;;;2.29;79.39;100960.47;5096389;27;20208;-70
2023/11/18 10:25:52;;;;;;;6.03;4.97;;;;;;;2.34;78.89;100970.78;5114633;28;20203;-72
2023/11/18 10:28:28;;;;;;;5.53;4.83;;;;;;;2.35;79.20;100973.38;5111293;27;20219;-76
2023/11/18 10:30:58;;;;;;;6.77;5.00;;;;;;;2.37;78.18;100969.22;5116258;27;20207;-72
2023/11/18 10:33:30;;;;;;;6.47;5.03;;;;;;;2.31;77.53;100961.34;5121576;27;20212;-74
2023/11/18 10:36:03;;;;;;;7.63;5.50;;;;;;;2.19;78.15;100958.38;5122210;27;20519;-71
2023/11/18 10:38:43;;;;;;;12.40;8.07;;;;;;;2.30;80.02;100959.63;5113053;27;20578;-72
2023/11/18 10:41:12;;;;;;;6.90;5.20;;;;;;;2.37;78.89;100951.41;5113907;28;20199;-72
2023/11/18 10:43:41;;;;;;;7.53;5.63;;;;;;;2.26;77.21;100946.75;5109011;28;20247;-72
2023/11/18 10:46:13;;;;;;;7.20;5.20;;;;;;;2.15;78.60;100954.00;5114018;28;20315;-72
2023/11/18 10:48:42;;;;;;;7.07;5.33;;;;;;;2.09;78.97;100957.16;5103598;27;20277;-73
2023/11/18 10:51:12;;;;;;;8.20;6.03;;;;;;;2.04;78.53;100958.69;5096300;28;20204;-72
2023/11/18 10:53:53;;;;;;;8.10;6.30;;;;;;;1.97;78.97;100961.78;5103373;28;20617;-75
2023/11/18 10:56:26;;;;;;;6.43;5.67;;;;;;;1.98;79.28;100968.59;5095500;28;20223;-74
2023/11/18 10:58:57;;;;;;;7.80;6.13;;;;;;;1.92;78.83;100970.94;5108469;27;20576;-73
2023/11/18 11:01:31;;;;;;;7.73;5.73;;;;;;;1.89;78.95;100971.66;5099192;28;20279;-72
2023/11/18 11:04:04;;;;;;;10.83;5.93;;;;;;;1.85;78.84;100969.81;5103022;28;20212;-74
2023/11/18 11:06:34;;;;;;;7.27;5.80;;;;;;;1.78;79.78;100967.84;5096626;28;20639;-73
2023/11/18 11:09:14;;;;;;;8.03;5.57;;;;;;;1.76;80.42;100958.44;5104103;28;20224;-75
2023/11/18 11:11:49;;;;;;;9.00;6.50;;;;;;;1.83;80.42;100968.88;5093453;28;20208;-74
2023/11/18 11:14:21;;;;;;;8.17;6.23;;;;;;;1.85;79.77;100974.03;5093254;28;20235;-72
2023/11/18 11:16:55;;;;;;;9.53;6.67;;;;;;;1.84;80.31;100977.38;5099670;28;20217;-73
2023/11/18 11:19:27;;;;;;;9.60;6.23;;;;;;;1.89;79.64;100980.97;5113944;28;20245;-78
2023/11/18 11:22:05;;;;;;;8.33;6.20;;;;;;;1.85;79.62;100980.00;5110197;28;20282;-74
2023/11/18 11:24:55;;;;;;;8.13;6.70;;;;;;;1.82;80.49;100990.03;5099071;28;20641;-68
2023/11/18 11:27:35;;;;;;;9.37;6.90;;;;;;;1.86;79.30;100989.34;5099353;28;20275;-67
2023/11/18 11:30:11;;;;;;;8.57;6.83;;;;;;;1.83;80.05;100993.44;5112079;28;20282;-68
2023/11/18 11:32:48;;;;;;;9.30;6.80;;;;;;;1.81;79.99;100995.06;5096793;28;20577;-69
2023/11/18 11:35:21;;;;;;;8.70;6.70;;;;;;;1.84;80.11;100997.69;5092464;28;20200;-67
2023/11/18 11:37:53;;;;;;;9.83;7.30;;;;;;;1.85;80.39;100994.38;5092618;28;20574;-70
2023/11/18 11:40:23;;;;;;;9.80;7.00;;;;;;;1.89;80.64;100997.09;5121278;27;20715;-69
2023/11/18 11:42:55;;;;;;;9.20;6.57;;;;;;;1.96;80.15;101003.28;5090884;28;20213;-71
2023/11/18 11:45:28;;;;;;;9.90;6.70;;;;;;;1.96;79.90;100999.88;5108548;28;21005;-68